createdAt,value
2023-03-02T00:00:38.384Z,86.36
2023-03-02T00:03:06.236Z,87.02
2023-03-02T00:05:36.735Z,87.15
2023-03-02T00:08:04.122Z,87.38
2023-03-02T00:10:31.296Z,88.12
2023-03-02T00:12:58.750Z,88.40
2023-03-02T00:15:25.292Z,88.33
2023-03-02T00:17:51.778Z,88.96
2023-03-02T00:20:18.291Z,89.43
2023-03-02T00:22:45.831Z,90.07
2023-03-02T00:25:14.402Z,89.80
2023-03-02T00:27:41.384Z,89.83
2023-03-02T00:30:09.312Z,90.69
2023-03-02T00:32:35.989Z,91.00
2023-03-02T00:35:02.845Z,91.50
2023-03-02T00:37:29.295Z,91.97
2023-03-02T00:39:55.761Z,91.76
2023-03-02T00:42:22.262Z,92.23
2023-03-02T00:44:48.735Z,92.46
2023-03-02T00:47:15.228Z,92.83
2023-03-02T00:49:41.692Z,93.07
2023-03-02T00:52:08.186Z,92.80
2023-03-02T00:54:34.639Z,92.96
2023-03-02T00:57:01.036Z,93.48
2023-03-02T00:59:27.547Z,93.34
2023-03-02T01:01:59.531Z,93.13
2023-03-02T01:04:29.597Z,93.51
2023-03-02T01:07:00.115Z,93.86
2023-03-02T01:09:27.718Z,93.67
2023-03-02T01:11:54.632Z,93.93
2023-03-02T01:14:21.776Z,94.22
2023-03-02T01:16:48.448Z,93.86
2023-03-02T01:19:15.787Z,94.09
2023-03-02T01:21:42.303Z,94.00
2023-03-02T01:24:10.121Z,94.20
2023-03-02T01:26:37.211Z,94.54
2023-03-02T01:29:04.522Z,94.81
2023-03-02T01:31:31.067Z,95.02
2023-03-02T01:33:57.715Z,94.48
2023-03-02T01:36:24.813Z,94.65
2023-03-02T01:38:51.271Z,94.80
2023-03-02T01:41:18.058Z,94.86
2023-03-02T01:43:44.481Z,95.11
2023-03-02T01:46:20.137Z,95.10
2023-03-02T01:48:51.921Z,94.97
2023-03-02T01:51:22.430Z,95.22
2023-03-02T01:53:54.554Z,94.92
2023-03-02T01:56:26.373Z,95.16
2023-03-02T01:59:01.962Z,94.98
2023-03-02T02:01:31.934Z,95.50
2023-03-02T02:03:58.443Z,95.19
2023-03-02T02:06:31.388Z,95.34
2023-03-02T02:09:00.027Z,94.96
2023-03-02T02:11:26.999Z,95.23
2023-03-02T02:14:01.862Z,95.40
2023-03-02T02:16:31.675Z,95.66
2023-03-02T02:18:58.609Z,95.83
2023-03-02T02:21:27.880Z,95.85
2023-03-02T02:24:22.145Z,96.01
2023-03-02T02:26:51.640Z,95.83
2023-03-02T02:29:26.873Z,96.27
2023-03-02T02:32:12.220Z,96.49
2023-03-02T02:34:54.168Z,96.14
2023-03-02T02:37:26.322Z,96.74
2023-03-02T02:39:52.852Z,96.66
2023-03-02T02:42:25.559Z,97.14
2023-03-02T02:44:56.821Z,96.88
2023-03-02T02:47:23.764Z,96.84
2023-03-02T02:49:53.016Z,96.69
2023-03-02T02:52:23.239Z,96.70
2023-03-02T02:54:52.709Z,96.84
2023-03-02T02:57:20.890Z,97.14
2023-03-02T02:59:59.941Z,96.78
2023-03-02T03:02:30.601Z,96.78
2023-03-02T03:05:03.191Z,96.88
2023-03-02T03:07:31.941Z,97.08
2023-03-02T03:10:04.212Z,97.27
2023-03-02T03:12:33.440Z,97.19
2023-03-02T03:15:01.539Z,97.55
2023-03-02T03:17:28.138Z,97.56
2023-03-02T03:19:54.686Z,96.98
2023-03-02T03:22:21.137Z,97.31
2023-03-02T03:24:47.638Z,97.66
2023-03-02T03:27:15.875Z,97.53
2023-03-02T03:29:48.320Z,97.58
2023-03-02T03:32:15.118Z,97.64
2023-03-02T03:34:42.332Z,97.80
2023-03-02T03:37:11.020Z,97.63
2023-03-02T03:39:37.883Z,97.92
2023-03-02T03:42:05.313Z,97.90
2023-03-02T03:44:32.020Z,97.98
2023-03-02T03:46:58.847Z,98.12
2023-03-02T03:49:25.786Z,97.81
2023-03-02T03:51:52.748Z,98.16
2023-03-02T03:54:19.316Z,98.31
2023-03-02T03:56:48.164Z,98.43
2023-03-02T03:59:23.501Z,98.53
2023-03-02T04:01:56.771Z,98.60
2023-03-02T04:04:30.021Z,98.53
2023-03-02T04:06:56.904Z,98.99
2023-03-02T04:09:24.111Z,99.00
2023-03-02T04:11:53.552Z,99.27
2023-03-02T04:14:22.131Z,99.03
2023-03-02T04:16:48.616Z,99.59
2023-03-02T04:19:17.434Z,99.42
2023-03-02T04:21:47.201Z,99.13
2023-03-02T04:24:15.068Z,99.49
2023-03-02T04:26:42.686Z,99.17
2023-03-02T04:29:10.197Z,99.49
2023-03-02T04:31:36.713Z,99.64
2023-03-02T04:34:06.507Z,99.58
2023-03-02T04:36:36.637Z,99.48
2023-03-02T04:39:05.081Z,99.90
2023-03-02T04:41:31.578Z,99.77
2023-03-02T04:43:58.119Z,99.92
2023-03-02T04:46:27.255Z,99.80
2023-03-02T04:48:54.702Z,99.64
2023-03-02T04:51:31.460Z,100.00
2023-03-02T04:54:01.076Z,100.00
2023-03-02T04:56:27.945Z,99.84
2023-03-02T04:58:54.844Z,99.65
2023-03-02T05:01:21.817Z,99.96
2023-03-02T05:03:49.532Z,99.75
2023-03-02T05:06:16.879Z,99.86
2023-03-02T05:08:44.464Z,99.73
2023-03-02T05:11:22.209Z,100.00
2023-03-02T05:13:58.073Z,100.00
2023-03-02T05:16:31.950Z,99.74
2023-03-02T05:19:00.334Z,99.70
2023-03-02T05:21:27.461Z,99.92
2023-03-02T05:23:54.089Z,99.79
2023-03-02T05:26:20.673Z,100.00
2023-03-02T05:28:47.191Z,100.00
2023-03-02T05:31:55.622Z,100.00
2023-03-02T05:34:22.180Z,100.00
2023-03-02T05:36:48.689Z,100.00
2023-03-02T05:39:15.213Z,100.00
2023-03-02T05:41:42.350Z,100.00
2023-03-02T05:44:10.316Z,100.00
2023-03-02T05:46:37.006Z,100.00
2023-03-02T05:49:03.670Z,100.00
2023-03-02T05:51:30.122Z,100.00
2023-03-02T05:53:56.579Z,100.00
2023-03-02T05:56:23.014Z,99.95
2023-03-02T05:58:49.580Z,100.00
2023-03-02T06:01:16.085Z,100.00
2023-03-02T06:03:43.456Z,100.00
2023-03-02T06:06:13.906Z,100.00
2023-03-02T06:08:42.098Z,100.00
2023-03-02T06:11:08.949Z,100.00
2023-03-02T06:13:35.698Z,100.00
2023-03-02T06:16:02.477Z,100.00
2023-03-02T06:18:29.079Z,100.00
2023-03-02T06:20:55.743Z,100.00
2023-03-02T06:23:22.413Z,100.00
2023-03-02T06:25:48.972Z,100.00
2023-03-02T06:28:16.633Z,100.00
2023-03-02T06:30:43.175Z,100.00
2023-03-02T06:33:09.582Z,100.00
2023-03-02T06:35:36.193Z,100.00
2023-03-02T06:38:02.784Z,100.00
2023-03-02T06:40:30.297Z,100.00
2023-03-02T06:42:56.904Z,100.00
2023-03-02T06:45:23.386Z,100.00
2023-03-02T06:47:49.947Z,100.00
2023-03-02T06:50:16.464Z,100.00
2023-03-02T06:52:42.935Z,100.00
2023-03-02T06:55:09.666Z,100.00
2023-03-02T06:57:36.165Z,100.00
2023-03-02T07:00:18.273Z,100.00
2023-03-02T07:02:45.113Z,100.00
2023-03-02T07:05:12.585Z,100.00
2023-03-02T07:07:39.556Z,100.00
2023-03-02T07:10:07.646Z,100.00
2023-03-02T07:12:34.788Z,100.00
2023-03-02T07:15:01.318Z,100.00
2023-03-02T07:17:27.797Z,100.00
2023-03-02T07:19:54.417Z,100.00
2023-03-02T07:22:21.026Z,100.00
2023-03-02T07:24:47.487Z,100.00
2023-03-02T07:27:13.908Z,100.00
2023-03-02T07:29:40.404Z,100.00
2023-03-02T07:32:06.992Z,100.00
2023-03-02T07:34:33.618Z,100.00
2023-03-02T07:37:00.053Z,100.00
2023-03-02T07:39:26.584Z,100.00
2023-03-02T07:41:53.003Z,100.00
2023-03-02T07:44:19.482Z,100.00
2023-03-02T07:46:46.014Z,100.00
2023-03-02T07:49:12.604Z,100.00
2023-03-02T07:51:39.106Z,100.00
2023-03-02T07:54:05.675Z,100.00
2023-03-02T07:56:32.202Z,100.00
2023-03-02T07:58:58.706Z,100.00
2023-03-02T08:01:25.341Z,100.00
2023-03-02T08:03:51.920Z,100.00
2023-03-02T08:06:18.701Z,100.00
2023-03-02T08:08:45.224Z,100.00
2023-03-02T08:11:15.304Z,100.00
2023-03-02T08:13:43.135Z,100.00
2023-03-02T08:16:11.652Z,100.00
2023-03-02T08:18:39.503Z,100.00
2023-03-02T08:21:15.022Z,99.80
2023-03-02T08:23:41.865Z,99.71
2023-03-02T08:26:08.436Z,99.90
2023-03-02T08:28:35.069Z,99.34
2023-03-02T08:31:02.934Z,99.14
2023-03-02T08:33:30.827Z,98.76
2023-03-02T08:36:02.004Z,98.74
2023-03-02T08:38:29.631Z,98.59
2023-03-02T08:40:56.501Z,98.65
2023-03-02T08:43:25.251Z,98.24
2023-03-02T08:45:57.999Z,97.80
2023-03-02T08:48:25.520Z,97.71
2023-03-02T08:51:01.161Z,97.46
2023-03-02T08:53:30.231Z,97.12
2023-03-02T08:55:56.808Z,97.07
2023-03-02T08:58:23.336Z,96.92
2023-03-02T09:00:50.489Z,96.57
2023-03-02T09:03:17.023Z,96.54
2023-03-02T09:05:44.120Z,96.49
2023-03-02T09:08:11.136Z,96.23
2023-03-02T09:10:38.174Z,96.05
2023-03-02T09:13:06.846Z,95.79
2023-03-02T09:15:34.897Z,95.59
2023-03-02T09:18:01.387Z,95.52
2023-03-02T09:20:27.861Z,95.38
2023-03-02T09:22:54.365Z,95.43
2023-03-02T09:25:21.106Z,95.15
2023-03-02T09:27:47.678Z,94.63
2023-03-02T09:30:15.182Z,94.64
2023-03-02T09:32:42.223Z,94.55
2023-03-02T09:35:08.799Z,94.33
2023-03-02T09:37:37.352Z,94.15
2023-03-02T09:40:05.018Z,93.64
2023-03-02T09:42:54.296Z,93.58
2023-03-02T09:45:23.484Z,93.47
2023-03-02T09:48:13.495Z,92.74
2023-03-02T09:50:44.903Z,92.33
2023-03-02T09:53:30.341Z,91.85
2023-03-02T09:56:02.392Z,91.68
2023-03-02T09:58:34.943Z,91.62
2023-03-02T10:01:06.263Z,90.25
2023-03-02T10:03:44.774Z,90.26
2023-03-02T10:06:13.717Z,89.91
2023-03-02T10:08:42.803Z,89.70
2023-03-02T10:11:22.291Z,89.30
2023-03-02T10:13:58.072Z,89.17
2023-03-02T10:16:39.072Z,87.96
2023-03-02T10:19:13.823Z,87.62
2023-03-02T10:21:42.767Z,87.75
2023-03-02T10:24:28.700Z,86.41
2023-03-02T10:26:59.601Z,86.92
2023-03-02T10:29:48.858Z,86.22
2023-03-02T10:32:29.944Z,85.59
2023-03-02T10:34:59.191Z,85.62
2023-03-02T10:37:30.827Z,85.61
2023-03-02T10:39:58.086Z,84.06
2023-03-02T10:42:34.323Z,82.88
2023-03-02T10:45:26.781Z,82.32
2023-03-02T10:48:01.308Z,81.89
2023-03-02T10:50:27.934Z,81.44
2023-03-02T10:52:59.898Z,81.81
2023-03-02T10:55:28.785Z,80.88
2023-03-02T10:58:07.132Z,80.86
2023-03-02T11:00:35.340Z,80.12
2023-03-02T11:03:06.090Z,78.35
2023-03-02T11:05:38.353Z,78.71
2023-03-02T11:08:32.885Z,78.94
2023-03-02T11:11:04.001Z,78.39
2023-03-02T11:13:34.659Z,79.14
2023-03-02T11:16:04.637Z,78.88
2023-03-02T11:18:37.385Z,78.70
2023-03-02T11:21:13.550Z,77.01
2023-03-02T11:23:57.653Z,76.47
2023-03-02T11:26:24.063Z,75.14
2023-03-02T11:29:04.681Z,75.85
2023-03-02T11:31:50.170Z,74.99
2023-03-02T11:34:35.825Z,74.43
2023-03-02T11:37:22.158Z,75.19
2023-03-02T11:39:55.148Z,74.74
2023-03-02T11:42:36.999Z,74.90
2023-03-02T11:45:27.229Z,73.39
2023-03-02T11:48:19.781Z,72.58
2023-03-02T11:51:00.644Z,71.91
2023-03-02T11:53:33.761Z,71.43
2023-03-02T11:56:00.398Z,71.86
2023-03-02T11:58:29.604Z,72.46
2023-03-02T12:00:57.115Z,72.25
2023-03-02T12:03:38.399Z,72.26
2023-03-02T12:06:26.137Z,72.14
2023-03-02T12:09:06.821Z,71.19
2023-03-02T12:11:40.429Z,70.62
2023-03-02T12:14:37.997Z,70.02
2023-03-02T12:17:32.905Z,70.37
2023-03-02T12:20:08.614Z,70.16
2023-03-02T12:22:37.480Z,69.53
2023-03-02T12:25:26.859Z,69.04
2023-03-02T12:27:54.417Z,67.51
2023-03-02T12:30:28.253Z,67.65
2023-03-02T12:33:21.153Z,66.99
2023-03-02T12:35:50.073Z,66.83
2023-03-02T12:38:32.690Z,67.53
2023-03-02T12:41:21.136Z,67.28
2023-03-02T12:43:58.711Z,67.54
2023-03-02T12:46:33.628Z,66.48
2023-03-02T12:49:24.784Z,66.33
2023-03-02T12:51:53.247Z,65.49
2023-03-02T12:54:23.646Z,64.97
2023-03-02T12:56:50.745Z,65.06
2023-03-02T12:59:24.500Z,63.96
2023-03-02T13:01:51.111Z,63.84
2023-03-02T13:04:23.176Z,64.41
2023-03-02T13:06:49.830Z,64.06
2023-03-02T13:09:16.839Z,63.57
2023-03-02T13:11:44.414Z,63.48
2023-03-02T13:14:18.755Z,62.07
2023-03-02T13:16:54.903Z,62.47
2023-03-02T13:19:22.234Z,63.25
2023-03-02T13:21:48.912Z,64.89
2023-03-02T13:24:33.810Z,66.37
2023-03-02T13:27:22.152Z,66.30
2023-03-02T13:29:49.730Z,66.90
2023-03-02T13:32:26.535Z,67.53
2023-03-02T13:34:58.944Z,68.11
2023-03-02T13:37:33.844Z,68.39
2023-03-02T13:40:03.139Z,68.05
2023-03-02T13:42:39.332Z,68.78
2023-03-02T13:45:25.098Z,68.60
2023-03-02T13:47:52.719Z,68.27
2023-03-02T13:50:25.157Z,67.68
2023-03-02T13:52:53.166Z,68.18
2023-03-02T13:55:21.585Z,68.33
2023-03-02T13:57:50.280Z,68.15
2023-03-02T14:00:27.701Z,67.74
2023-03-02T14:02:54.128Z,68.27
2023-03-02T14:05:25.410Z,68.20
2023-03-02T14:07:52.124Z,67.91
2023-03-02T14:10:20.244Z,68.12
2023-03-02T14:13:21.563Z,67.94
2023-03-02T14:15:51.041Z,68.91
2023-03-02T14:18:36.028Z,68.99
2023-03-02T14:21:02.825Z,68.60
2023-03-02T14:23:29.422Z,67.98
2023-03-02T14:25:57.230Z,67.64
2023-03-02T14:28:35.896Z,68.18
2023-03-02T14:31:02.364Z,68.77
2023-03-02T14:33:28.840Z,67.96
2023-03-02T14:35:59.026Z,68.47
2023-03-02T14:38:27.076Z,68.64
2023-03-02T14:40:54.057Z,68.98
2023-03-02T14:43:21.361Z,69.17
2023-03-02T14:45:47.942Z,69.07
2023-03-02T14:48:14.463Z,68.42
2023-03-02T14:50:46.056Z,68.26
2023-03-02T14:53:19.724Z,68.86
2023-03-02T14:55:46.869Z,68.98
2023-03-02T14:58:25.650Z,69.18
2023-03-02T15:00:52.171Z,68.83
2023-03-02T15:03:22.580Z,68.98
2023-03-02T15:06:00.856Z,69.23
2023-03-02T15:08:29.042Z,68.75
2023-03-02T15:10:55.533Z,68.89
2023-03-02T15:13:22.046Z,69.39
2023-03-02T15:15:50.099Z,69.21
2023-03-02T15:18:19.673Z,69.13
2023-03-02T15:20:46.393Z,68.97
2023-03-02T15:23:13.009Z,69.46
2023-03-02T15:25:39.535Z,69.23
2023-03-02T15:28:06.043Z,69.40
2023-03-02T15:30:32.473Z,69.57
2023-03-02T15:32:59.586Z,69.93
2023-03-02T15:35:27.621Z,69.39
2023-03-02T15:37:55.070Z,70.05
2023-03-02T15:40:21.475Z,69.99
2023-03-02T15:42:48.026Z,70.26
2023-03-02T15:45:14.671Z,70.30
2023-03-02T15:47:41.081Z,70.76
2023-03-02T15:50:08.240Z,70.54
2023-03-02T15:52:34.848Z,70.15
2023-03-02T15:55:01.343Z,70.26
2023-03-02T15:57:27.756Z,70.40
2023-03-02T15:59:54.284Z,70.71
2023-03-02T16:02:20.885Z,70.61
2023-03-02T16:04:47.490Z,70.15
2023-03-02T16:07:16.303Z,70.70
2023-03-02T16:09:45.227Z,70.80
2023-03-02T16:12:11.807Z,70.45
2023-03-02T16:14:38.290Z,70.91
2023-03-02T16:17:04.858Z,71.27
2023-03-02T16:19:32.284Z,71.28
2023-03-02T16:21:58.802Z,71.59
2023-03-02T16:24:25.324Z,71.61
2023-03-02T16:26:53.565Z,71.70
2023-03-02T16:29:20.087Z,72.47
2023-03-02T16:31:47.191Z,72.77
2023-03-02T16:34:14.462Z,72.94
2023-03-02T16:36:41.314Z,73.87
2023-03-02T16:39:09.635Z,74.10
2023-03-02T16:41:36.454Z,74.79
2023-03-02T16:44:03.674Z,75.03
2023-03-02T16:46:32.787Z,75.16
2023-03-02T16:48:59.394Z,75.04
2023-03-02T16:51:25.832Z,75.32
2023-03-02T16:53:52.393Z,75.56
2023-03-02T16:56:18.883Z,75.76
2023-03-02T16:58:45.368Z,75.93
2023-03-02T17:01:16.035Z,75.95
2023-03-02T17:03:42.521Z,76.47
2023-03-02T17:06:11.015Z,76.41
2023-03-02T17:08:37.990Z,76.96
2023-03-02T17:11:04.755Z,77.42
2023-03-02T17:13:31.218Z,77.69
2023-03-02T17:15:58.455Z,77.80
2023-03-02T17:18:29.635Z,78.30
2023-03-02T17:20:58.158Z,78.17
2023-03-02T17:23:25.806Z,78.51
2023-03-02T17:25:52.271Z,78.32
2023-03-02T17:28:19.077Z,78.66
2023-03-02T17:30:45.580Z,79.01
2023-03-02T17:33:12.197Z,79.05
2023-03-02T17:35:38.715Z,79.04
2023-03-02T17:38:06.025Z,79.26
2023-03-02T17:40:33.536Z,79.63
2023-03-02T17:43:00.051Z,79.30
2023-03-02T17:45:28.523Z,79.71
2023-03-02T17:47:57.440Z,79.82
2023-03-02T17:50:24.472Z,80.17
2023-03-02T17:52:51.238Z,79.42
2023-03-02T17:55:17.844Z,79.97
2023-03-02T17:57:44.319Z,79.95
2023-03-02T18:00:16.597Z,79.65
2023-03-02T18:02:43.103Z,79.95
2023-03-02T18:05:10.676Z,80.54
2023-03-02T18:07:37.544Z,80.12
2023-03-02T18:10:05.219Z,80.61
2023-03-02T18:12:32.241Z,80.40
2023-03-02T18:14:58.708Z,80.96
2023-03-02T18:17:25.182Z,81.33
2023-03-02T18:19:51.673Z,81.24
2023-03-02T18:22:18.152Z,81.14
2023-03-02T18:24:44.575Z,81.40
2023-03-02T18:27:11.138Z,82.08
2023-03-02T18:29:37.610Z,81.98
2023-03-02T18:32:04.218Z,81.74
2023-03-02T18:34:30.675Z,81.99
2023-03-02T18:36:57.098Z,81.67
2023-03-02T18:39:23.582Z,81.97
2023-03-02T18:41:50.024Z,82.13
2023-03-02T18:44:16.480Z,81.71
2023-03-02T18:46:42.997Z,81.93
2023-03-02T18:49:09.451Z,81.94
2023-03-02T18:51:35.953Z,81.39
2023-03-02T18:54:02.468Z,81.90
2023-03-02T18:56:28.951Z,81.47
2023-03-02T18:58:55.381Z,81.88
2023-03-02T19:01:22.273Z,82.13
2023-03-02T19:03:49.098Z,81.87
2023-03-02T19:06:16.454Z,82.37
2023-03-02T19:08:43.493Z,82.53
2023-03-02T19:11:11.683Z,82.36
2023-03-02T19:13:38.152Z,82.44
2023-03-02T19:16:05.237Z,83.31
2023-03-02T19:18:31.926Z,82.78
2023-03-02T19:20:58.652Z,82.83
2023-03-02T19:23:25.203Z,83.23
2023-03-02T19:25:52.381Z,83.72
2023-03-02T19:28:18.985Z,83.66
2023-03-02T19:30:45.425Z,84.18
2023-03-02T19:33:11.929Z,83.71
2023-03-02T19:35:38.945Z,84.45
2023-03-02T19:38:07.258Z,83.73
2023-03-02T19:40:34.594Z,83.93
2023-03-02T19:43:01.489Z,84.08
2023-03-02T19:45:32.359Z,84.15
2023-03-02T19:47:59.842Z,84.96
2023-03-02T19:50:27.664Z,84.62
2023-03-02T19:52:54.846Z,85.12
2023-03-02T19:55:22.487Z,85.21
2023-03-02T19:57:51.715Z,85.59
2023-03-02T20:00:19.414Z,85.44
2023-03-02T20:02:47.306Z,85.57
2023-03-02T20:05:14.628Z,86.10
2023-03-02T20:07:42.025Z,86.37
2023-03-02T20:10:09.880Z,86.38
2023-03-02T20:12:37.951Z,86.28
2023-03-02T20:15:06.039Z,86.18
2023-03-02T20:17:33.750Z,86.08
2023-03-02T20:20:01.313Z,86.53
2023-03-02T20:22:27.905Z,86.80
2023-03-02T20:24:54.452Z,86.92
2023-03-02T20:27:21.243Z,87.07
2023-03-02T20:29:48.360Z,87.65
2023-03-02T20:32:15.399Z,87.54
2023-03-02T20:34:43.085Z,87.54
2023-03-02T20:37:11.903Z,87.73
2023-03-02T20:39:41.806Z,88.61
2023-03-02T20:42:08.593Z,88.48
2023-03-02T20:44:35.441Z,88.63
2023-03-02T20:47:08.227Z,89.30
2023-03-02T20:49:35.844Z,89.40
2023-03-02T20:52:02.607Z,89.47
2023-03-02T20:54:36.119Z,89.48
2023-03-02T20:57:02.817Z,90.12
2023-03-02T20:59:29.752Z,90.43
2023-03-02T21:01:56.232Z,90.70
2023-03-02T21:04:22.760Z,91.10
2023-03-02T21:06:50.801Z,91.04
2023-03-02T21:09:21.302Z,91.27
2023-03-02T21:11:48.158Z,91.98
2023-03-02T21:14:15.333Z,91.88
2023-03-02T21:16:43.730Z,91.65
2023-03-02T21:19:14.560Z,92.29
2023-03-02T21:21:42.598Z,91.86
2023-03-02T21:24:10.973Z,92.20
2023-03-02T21:26:38.558Z,92.07
2023-03-02T21:29:05.836Z,92.62
2023-03-02T21:31:32.573Z,92.46
2023-03-02T21:34:00.121Z,92.72
2023-03-02T21:36:27.169Z,92.93
2023-03-02T21:38:53.796Z,93.35
2023-03-02T21:41:20.371Z,92.81
2023-03-02T21:43:47.709Z,93.02
2023-03-02T21:46:18.708Z,93.38
2023-03-02T21:48:46.730Z,93.41
2023-03-02T21:51:13.776Z,93.33
2023-03-02T21:53:40.722Z,93.35
2023-03-02T21:56:07.563Z,93.24
2023-03-02T21:58:34.541Z,93.05
2023-03-02T22:01:00.990Z,93.83
2023-03-02T22:03:27.428Z,93.28
2023-03-02T22:05:53.987Z,93.62
2023-03-02T22:08:21.377Z,94.00
2023-03-02T22:10:49.925Z,94.12
2023-03-02T22:13:22.467Z,93.98
2023-03-02T22:15:50.934Z,94.65
2023-03-02T22:18:20.303Z,94.30
2023-03-02T22:20:49.995Z,94.47
2023-03-02T22:23:21.048Z,94.33
2023-03-02T22:25:50.844Z,94.34
2023-03-02T22:28:22.932Z,94.64
2023-03-02T22:30:53.210Z,94.69
2023-03-02T22:33:22.511Z,94.88
2023-03-02T22:35:51.075Z,94.85
2023-03-02T22:38:26.769Z,95.05
2023-03-02T22:40:54.853Z,95.10
2023-03-02T22:43:29.446Z,94.99
2023-03-02T22:46:09.253Z,94.80
2023-03-02T22:48:36.921Z,94.62
2023-03-02T22:51:35.957Z,94.92
2023-03-02T22:54:02.463Z,94.92
2023-03-02T22:56:36.881Z,95.25
2023-03-02T22:59:15.399Z,94.83
2023-03-02T23:01:44.244Z,94.91
2023-03-02T23:04:15.233Z,94.75
2023-03-02T23:06:52.415Z,94.81
2023-03-02T23:09:28.080Z,94.80
2023-03-02T23:11:57.606Z,94.99
2023-03-02T23:14:27.815Z,95.04
2023-03-02T23:17:00.116Z,95.19
2023-03-02T23:19:29.977Z,95.26
2023-03-02T23:21:57.964Z,95.31
2023-03-02T23:24:24.592Z,95.20
2023-03-02T23:26:52.525Z,95.19
2023-03-02T23:29:20.230Z,95.29
2023-03-02T23:31:47.486Z,95.04
2023-03-02T23:34:14.190Z,95.31
2023-03-02T23:36:41.508Z,95.15
2023-03-02T23:39:09.398Z,95.05
2023-03-02T23:41:37.272Z,95.21
2023-03-02T23:44:04.799Z,95.21
2023-03-02T23:46:31.243Z,95.26
2023-03-02T23:48:58.009Z,95.10
2023-03-02T23:51:25.525Z,94.89
2023-03-02T23:53:53.837Z,95.18
2023-03-02T23:56:20.535Z,94.91
2023-03-02T23:58:48.067Z,95.30
